Time;durP1;ratioP1;P1;durP2;ratioP2;P2;SDS_P1;SDS_P2;PMS_P1;PMS_P2;Temp;Humidity;BMP_temperature;BMP_pressure;BME280_temperature;BME280_humidity;BME280_pressure;Samples;Min_cycle;Max_cycle;Signal;HPM_P1;HPM_P2
2023/07/24 00:02:23;;;;;;;0.03;0.03;;;15.80;65.10;;;;;;5054621;28;20223;-48
2023/07/24 00:04:54;;;;;;;0.10;0.10;;;15.80;65.10;;;;;;5054608;28;20219;-48
2023/07/24 00:07:27;;;;;;;0.10;0.10;;;15.80;65.10;;;;;;5054491;28;20218;-48
2023/07/24 00:09:57;;;;;;;0.10;0.10;;;15.80;65.00;;;;;;5055058;28;20278;-48
2023/07/24 00:12:29;;;;;;;0.10;0.10;;;15.80;65.00;;;;;;5054604;28;20273;-48
2023/07/24 00:14:59;;;;;;;0.10;0.10;;;15.80;65.00;;;;;;5054286;28;20204;-50
2023/07/24 00:17:30;;;;;;;0.10;0.10;;;15.80;65.10;;;;;;5054417;28;20212;-52
2023/07/24 00:20:00;;;;;;;0.10;0.10;;;15.80;65.10;;;;;;5051661;28;20679;-50
2023/07/24 00:22:33;;;;;;;0.10;0.10;;;15.90;65.20;;;;;;5053350;28;20230;-50
2023/07/24 00:25:05;;;;;;;0.10;0.10;;;15.90;65.20;;;;;;5054033;28;20253;-50
2023/07/24 00:27:36;;;;;;;0.10;0.10;;;15.90;65.20;;;;;;5053644;28;20220;-49
2023/07/24 00:30:07;;;;;;;0.00;0.00;;;15.90;65.20;;;;;;5053854;28;20651;-48
2023/07/24 00:32:37;;;;;;;0.10;0.10;;;15.90;65.20;;;;;;5053758;28;20199;-50
2023/07/24 00:35:09;;;;;;;0.08;0.08;;;15.90;65.20;;;;;;5052989;28;20539;-48
2023/07/24 00:37:41;;;;;;;0.00;0.00;;;15.90;65.30;;;;;;5044759;28;20218;-48
2023/07/24 00:40:12;;;;;;;0.03;0.03;;;15.90;65.40;;;;;;5051532;28;20196;-49
2023/07/24 00:42:43;;;;;;;0.10;0.10;;;15.90;65.30;;;;;;5044301;28;20228;-48
2023/07/24 00:45:14;;;;;;;0.10;0.10;;;15.90;65.40;;;;;;5052270;28;20615;-48
2023/07/24 00:47:45;;;;;;;0.10;0.10;;;15.90;65.40;;;;;;5052435;28;20207;-48
2023/07/24 00:50:16;;;;;;;0.10;0.10;;;15.90;65.40;;;;;;5052662;28;20204;-48
2023/07/24 00:52:49;;;;;;;0.10;0.10;;;15.90;65.40;;;;;;5044819;28;20211;-48
2023/07/24 00:55:20;;;;;;;0.10;0.10;;;15.90;65.30;;;;;;5034587;28;20203;-49
2023/07/24 00:57:51;;;;;;;0.10;0.10;;;15.90;65.30;;;;;;5051724;28;20220;-49
2023/07/24 01:00:21;;;;;;;0.10;0.10;;;15.90;65.40;;;;;;5050914;28;20626;-48
2023/07/24 01:02:52;;;;;;;0.10;0.10;;;15.90;65.40;;;;;;5052704;28;20216;-49
2023/07/24 01:05:25;;;;;;;0.20;0.20;;;15.90;65.30;;;;;;5051811;28;20199;-49
2023/07/24 01:07:57;;;;;;;0.00;0.00;;;15.90;65.40;;;;;;5052800;28;20215;-50
2023/07/24 01:10:28;;;;;;;0.10;0.10;;;16.00;65.50;;;;;;5051817;28;20603;-50
2023/07/24 01:13:05;;;;;;;0.10;0.10;;;15.90;65.40;;;;;;5052151;28;20195;-52
2023/07/24 01:15:38;;;;;;;0.10;0.10;;;16.00;65.50;;;;;;5052506;28;20195;-50
2023/07/24 01:18:12;;;;;;;0.10;0.10;;;16.00;65.60;;;;;;5052797;28;20564;-49
2023/07/24 01:20:46;;;;;;;0.00;0.00;;;16.00;65.60;;;;;;5038229;28;20192;-51
2023/07/24 01:23:28;;;;;;;0.08;0.08;;;16.00;65.70;;;;;;5042946;28;20226;-50
2023/07/24 01:26:02;;;;;;;0.10;0.10;;;16.00;65.60;;;;;;5052640;28;20226;-50
2023/07/24 01:28:33;;;;;;;0.10;0.10;;;16.00;65.60;;;;;;5036130;28;20219;-51
2023/07/24 01:31:03;;;;;;;0.10;0.10;;;16.00;65.70;;;;;;5032607;28;20568;-51
2023/07/24 01:33:37;;;;;;;0.10;0.10;;;16.00;65.70;;;;;;5047485;28;20714;-48
2023/07/24 01:36:08;;;;;;;0.00;0.00;;;16.10;65.80;;;;;;5052515;28;20199;-48
2023/07/24 01:38:40;;;;;;;0.10;0.10;;;16.00;65.70;;;;;;5038328;28;20859;-47
2023/07/24 01:41:13;;;;;;;0.10;0.10;;;16.10;65.80;;;;;;5032765;28;20246;-49
2023/07/24 01:43:43;;;;;;;0.03;0.03;;;16.10;65.80;;;;;;5032256;28;20227;-48
2023/07/24 01:46:14;;;;;;;0.10;0.10;;;16.10;65.80;;;;;;5032031;28;20277;-49
2023/07/24 01:48:45;;;;;;;0.10;0.10;;;16.00;65.70;;;;;;5031354;28;20216;-47
2023/07/24 01:51:16;;;;;;;0.10;0.10;;;16.10;65.90;;;;;;5031896;28;20270;-49
2023/07/24 01:53:46;;;;;;;0.08;0.08;;;16.10;65.90;;;;;;5044586;28;20199;-47
2023/07/24 01:56:19;;;;;;;0.10;0.10;;;16.10;65.90;;;;;;5050653;28;20200;-49
2023/07/24 01:58:50;;;;;;;0.10;0.10;;;16.10;65.90;;;;;;5044990;28;20206;-48
2023/07/24 02:01:20;;;;;;;0.05;0.05;;;16.20;66.00;;;;;;5051774;28;20191;-52
2023/07/24 02:03:51;;;;;;;0.20;0.20;;;16.20;65.90;;;;;;5051641;28;20216;-51
2023/07/24 02:06:21;;;;;;;0.10;0.10;;;16.20;65.90;;;;;;5050852;28;20203;-49
2023/07/24 02:08:52;;;;;;;0.10;0.10;;;16.20;65.90;;;;;;5052032;28;20195;-48
2023/07/24 02:11:24;;;;;;;0.10;0.10;;;16.20;65.90;;;;;;5051332;28;20195;-49
2023/07/24 02:13:55;;;;;;;0.10;0.10;;;16.20;65.90;;;;;;5051193;28;20568;-48
2023/07/24 02:16:26;;;;;;;0.17;0.17;;;16.20;65.90;;;;;;5040400;28;20556;-51
2023/07/24 02:18:56;;;;;;;0.10;0.10;;;16.20;65.90;;;;;;5037854;28;20196;-48
2023/07/24 02:21:27;;;;;;;0.10;0.10;;;16.20;65.90;;;;;;5031884;28;20192;-49
2023/07/24 02:23:58;;;;;;;0.10;0.10;;;16.30;66.00;;;;;;5030676;28;20224;-48
2023/07/24 02:26:30;;;;;;;0.10;0.10;;;16.30;65.90;;;;;;5031530;28;20200;-49
2023/07/24 02:29:01;;;;;;;0.10;0.10;;;16.30;66.00;;;;;;5043779;28;20624;-52
2023/07/24 02:31:31;;;;;;;0.10;0.10;;;16.30;65.90;;;;;;5050549;28;20207;-49
2023/07/24 02:34:02;;;;;;;0.10;0.10;;;16.30;65.90;;;;;;5041944;28;20709;-48
2023/07/24 02:36:33;;;;;;;0.10;0.10;;;16.30;65.90;;;;;;5051336;28;20203;-51
2023/07/24 02:39:03;;;;;;;0.17;0.17;;;16.30;65.90;;;;;;5051396;28;20195;-48
2023/07/24 02:41:36;;;;;;;0.10;0.10;;;16.30;65.90;;;;;;5051148;28;20286;-49
2023/07/24 02:44:07;;;;;;;0.10;0.10;;;16.30;65.90;;;;;;5051232;28;20748;-47
2023/07/24 02:46:37;;;;;;;0.20;0.20;;;16.30;65.90;;;;;;5050620;28;20272;-48
2023/07/24 02:49:08;;;;;;;0.10;0.10;;;16.30;65.90;;;;;;5050523;28;20188;-48
2023/07/24 02:51:39;;;;;;;0.10;0.10;;;16.30;65.80;;;;;;5050466;28;20223;-50
2023/07/24 02:54:09;;;;;;;0.10;0.10;;;16.40;65.90;;;;;;5049861;28;20663;-48
2023/07/24 02:56:42;;;;;;;0.10;0.10;;;16.40;65.90;;;;;;5050162;28;20214;-50
2023/07/24 02:59:12;;;;;;;0.10;0.10;;;16.40;65.90;;;;;;5047368;28;20195;-49
2023/07/24 03:01:43;;;;;;;0.10;0.10;;;16.40;65.90;;;;;;5050877;28;20222;-52
2023/07/24 03:04:13;;;;;;;0.10;0.10;;;16.40;65.90;;;;;;5037480;28;20215;-53
2023/07/24 03:06:44;;;;;;;0.10;0.10;;;16.40;65.90;;;;;;5047125;28;20223;-48
2023/07/24 03:09:15;;;;;;;0.10;0.10;;;16.40;65.90;;;;;;5050769;28;20195;-48
2023/07/24 03:11:47;;;;;;;0.10;0.10;;;16.40;65.90;;;;;;5049942;28;20199;-49
2023/07/24 03:14:18;;;;;;;0.10;0.10;;;16.50;66.00;;;;;;5046242;28;20191;-49
2023/07/24 03:16:48;;;;;;;0.10;0.10;;;16.40;66.00;;;;;;5050673;28;20223;-48
2023/07/24 03:19:20;;;;;;;0.10;0.10;;;16.50;66.10;;;;;;5049730;28;20560;-52
2023/07/24 03:21:50;;;;;;;0.10;0.10;;;16.50;66.20;;;;;;5049475;28;20253;-52
2023/07/24 03:24:21;;;;;;;0.10;0.10;;;16.50;66.10;;;;;;5050100;28;20223;-50
2023/07/24 03:26:53;;;;;;;0.10;0.10;;;16.50;66.10;;;;;;5048358;28;20687;-51
2023/07/24 03:29:24;;;;;;;0.10;0.10;;;16.50;66.10;;;;;;5050718;28;20659;-53
2023/07/24 03:31:55;;;;;;;0.00;0.00;;;16.50;66.10;;;;;;5050842;28;20195;-51
2023/07/24 03:34:25;;;;;;;0.10;0.10;;;16.50;66.10;;;;;;5050708;28;20210;-51
2023/07/24 03:36:56;;;;;;;0.10;0.10;;;16.60;66.90;;;;;;5050722;28;20215;-49
2023/07/24 03:39:26;;;;;;;0.10;0.10;;;16.60;66.20;;;;;;5051416;28;20210;-51
2023/07/24 03:41:59;;;;;;;0.10;0.10;;;16.60;66.10;;;;;;5050653;28;20253;-49
2023/07/24 03:44:30;;;;;;;0.10;0.10;;;16.60;66.20;;;;;;5050536;28;20223;-49
2023/07/24 03:47:00;;;;;;;0.10;0.10;;;16.60;66.20;;;;;;5050089;28;20661;-49
2023/07/24 03:49:31;;;;;;;0.10;0.10;;;16.70;66.30;;;;;;5048571;28;20195;-49
2023/07/24 03:52:01;;;;;;;0.10;0.10;;;16.60;66.20;;;;;;5050535;28;20200;-48
2023/07/24 03:54:32;;;;;;;0.08;0.08;;;16.70;66.30;;;;;;5050544;28;20200;-48
2023/07/24 03:57:05;;;;;;;0.10;0.10;;;16.70;66.40;;;;;;5050361;28;20222;-48
2023/07/24 03:59:35;;;;;;;0.10;0.10;;;16.70;66.30;;;;;;5050898;28;20203;-53
2023/07/24 04:02:06;;;;;;;0.03;0.03;;;16.70;66.30;;;;;;5053159;28;20196;-52
2023/07/24 04:04:37;;;;;;;0.00;0.00;;;16.80;66.30;;;;;;5053874;28;20227;-49
2023/07/24 04:07:08;;;;;;;0.00;0.00;;;16.80;66.20;;;;;;5053561;28;20215;-49
2023/07/24 04:09:39;;;;;;;0.10;0.10;;;16.80;66.20;;;;;;5053734;28;20195;-50
2023/07/24 04:12:12;;;;;;;0.00;0.00;;;16.80;66.10;;;;;;5054890;28;20614;-48
2023/07/24 04:14:42;;;;;;;0.00;0.00;;;16.80;66.00;;;;;;5054416;28;20210;-49
2023/07/24 04:17:13;;;;;;;0.10;0.10;;;16.80;66.00;;;;;;5054003;28;20219;-48
2023/07/24 04:19:43;;;;;;;0.10;0.10;;;16.90;66.00;;;;;;5049326;28;20184;-49
2023/07/24 04:22:14;;;;;;;0.10;0.10;;;16.90;66.70;;;;;;5034188;28;20192;-51
2023/07/24 04:24:45;;;;;;;0.10;0.10;;;16.90;65.90;;;;;;5033837;28;20231;-50
2023/07/24 04:27:17;;;;;;;0.10;0.10;;;16.90;65.80;;;;;;5033600;28;20242;-48
2023/07/24 04:29:48;;;;;;;0.10;0.10;;;16.90;65.80;;;;;;5033809;28;20200;-51
2023/07/24 04:32:18;;;;;;;0.10;0.10;;;17.00;65.80;;;;;;5034402;28;20200;-52
2023/07/24 04:34:49;;;;;;;0.10;0.10;;;17.00;65.70;;;;;;5034597;28;20659;-49
2023/07/24 04:37:20;;;;;;;0.10;0.10;;;17.00;65.70;;;;;;5040602;28;20220;-50
2023/07/24 04:39:50;;;;;;;0.10;0.10;;;17.00;65.60;;;;;;5033746;28;20196;-51
2023/07/24 04:42:23;;;;;;;0.10;0.10;;;17.00;66.00;;;;;;5033470;28;20200;-51
2023/07/24 04:44:53;;;;;;;0.10;0.10;;;17.10;65.70;;;;;;5033389;28;20232;-48
2023/07/24 04:47:24;;;;;;;0.10;0.10;;;17.10;65.70;;;;;;5033092;28;20625;-50
2023/07/24 04:49:55;;;;;;;0.10;0.10;;;17.10;65.60;;;;;;5033256;28;20655;-51
2023/07/24 04:52:25;;;;;;;0.05;0.05;;;17.10;65.60;;;;;;5033124;28;20199;-50
2023/07/24 04:54:56;;;;;;;0.10;0.10;;;17.10;65.50;;;;;;5049385;28;20211;-49
2023/07/24 04:57:28;;;;;;;0.10;0.10;;;17.10;65.50;;;;;;5052996;28;20599;-51
2023/07/24 04:59:59;;;;;;;0.10;0.10;;;17.10;65.40;;;;;;5053037;28;20202;-50
2023/07/24 05:02:30;;;;;;;0.10;0.10;;;17.10;65.40;;;;;;5053296;28;20660;-49
2023/07/24 05:05:00;;;;;;;0.10;0.10;;;17.10;65.30;;;;;;5053119;28;20288;-49
2023/07/24 05:07:31;;;;;;;0.10;0.10;;;17.10;65.40;;;;;;5053368;28;20216;-48
2023/07/24 05:10:01;;;;;;;0.10;0.10;;;17.10;65.20;;;;;;5042920;28;20758;-49
2023/07/24 05:12:34;;;;;;;0.10;0.10;;;17.10;66.10;;;;;;5049889;28;20206;-48
2023/07/24 05:15:05;;;;;;;0.10;0.10;;;17.10;65.30;;;;;;5042367;28;20193;-50
2023/07/24 05:17:35;;;;;;;0.10;0.10;;;17.10;65.30;;;;;;5052614;28;20211;-51
2023/07/24 05:20:06;;;;;;;0.10;0.10;;;17.10;65.30;;;;;;5051587;28;20195;-49
2023/07/24 05:22:37;;;;;;;0.00;0.00;;;17.10;65.20;;;;;;5050774;28;20191;-49
2023/07/24 05:25:08;;;;;;;0.00;0.00;;;17.10;65.20;;;;;;5040818;28;20219;-51
2023/07/24 05:27:40;;;;;;;0.00;0.00;;;17.10;65.20;;;;;;5040034;28;20207;-50
2023/07/24 05:30:11;;;;;;;0.10;0.10;;;17.10;65.20;;;;;;5052047;28;20191;-50
2023/07/24 05:32:42;;;;;;;0.10;0.10;;;17.10;65.20;;;;;;5051679;28;20207;-48
2023/07/24 05:35:13;;;;;;;0.10;0.10;;;17.10;65.20;;;;;;5043692;28;20253;-49
2023/07/24 05:37:43;;;;;;;0.00;0.00;;;17.10;65.20;;;;;;5050589;28;20874;-52
2023/07/24 05:40:14;;;;;;;0.10;0.10;;;17.10;65.20;;;;;;5040675;28;20196;-49
2023/07/24 05:42:47;;;;;;;0.00;0.00;;;17.10;65.10;;;;;;5031157;28;20200;-47
2023/07/24 05:45:18;;;;;;;0.10;0.10;;;17.10;65.10;;;;;;5039554;28;20769;-51
2023/07/24 05:47:48;;;;;;;0.10;0.10;;;17.10;65.10;;;;;;5032421;28;20455;-54
2023/07/24 05:50:19;;;;;;;0.00;0.00;;;17.10;65.10;;;;;;5051420;28;20188;-50
2023/07/24 05:52:50;;;;;;;0.10;0.10;;;17.10;65.10;;;;;;5050629;28;20195;-52
2023/07/24 05:55:21;;;;;;;0.08;0.08;;;17.10;65.00;;;;;;5050762;28;20196;-50
2023/07/24 05:57:53;;;;;;;0.10;0.10;;;17.10;65.00;;;;;;5050156;28;20597;-50
2023/07/24 06:00:24;;;;;;;0.05;0.05;;;17.10;65.00;;;;;;5048434;28;20195;-49
2023/07/24 06:02:55;;;;;;;0.10;0.10;;;17.10;64.90;;;;;;5050970;28;20218;-52
2023/07/24 06:05:25;;;;;;;0.10;0.10;;;17.10;64.90;;;;;;5049638;28;20231;-49
2023/07/24 06:07:56;;;;;;;0.10;0.10;;;17.10;65.00;;;;;;5050260;28;20220;-49
2023/07/24 06:10:27;;;;;;;0.10;0.10;;;17.10;65.00;;;;;;5049667;28;20614;-51
2023/07/24 06:12:59;;;;;;;0.10;0.10;;;17.10;64.90;;;;;;5050610;28;20202;-54
2023/07/24 06:15:30;;;;;;;0.10;0.10;;;17.10;64.90;;;;;;5050169;28;20203;-48
2023/07/24 06:18:00;;;;;;;0.10;0.10;;;17.10;64.90;;;;;;5050405;28;20215;-50
2023/07/24 06:20:31;;;;;;;0.10;0.10;;;17.10;64.90;;;;;;5046020;28;20593;-49
2023/07/24 06:23:03;;;;;;;0.10;0.10;;;17.10;64.90;;;;;;5050032;28;20192;-51
2023/07/24 06:25:34;;;;;;;0.10;0.10;;;17.00;64.80;;;;;;5050662;28;20277;-53
2023/07/24 06:28:06;;;;;;;0.10;0.10;;;17.00;64.80;;;;;;5050306;28;20594;-48
2023/07/24 06:30:37;;;;;;;0.10;0.10;;;17.00;64.70;;;;;;4941282;28;3109197;-48
2023/07/24 06:33:08;;;;;;;0.10;0.10;;;17.00;64.50;;;;;;5047223;28;20192;-53
2023/07/24 06:35:38;;;;;;;0.08;0.08;;;17.00;64.50;;;;;;5038536;28;20675;-52
2023/07/24 06:38:10;;;;;;;0.10;0.10;;;17.00;64.40;;;;;;5045668;28;20270;-49
2023/07/24 06:40:40;;;;;;;0.10;0.10;;;17.00;64.40;;;;;;5042476;28;20283;-48
2023/07/24 06:43:13;;;;;;;0.10;0.10;;;17.00;64.40;;;;;;5050753;28;20195;-52
2023/07/24 06:45:44;;;;;;;0.10;0.10;;;17.00;64.40;;;;;;5049772;28;20223;-49
2023/07/24 06:48:14;;;;;;;0.10;0.10;;;17.00;64.50;;;;;;5050556;28;20219;-47
2023/07/24 06:50:45;;;;;;;0.10;0.10;;;17.00;64.40;;;;;;5049802;28;20191;-51
2023/07/24 06:53:15;;;;;;;0.00;0.00;;;17.00;64.40;;;;;;5047018;28;20287;-50
2023/07/24 06:55:46;;;;;;;0.10;0.10;;;17.00;64.50;;;;;;5038731;28;20223;-49
2023/07/24 06:58:19;;;;;;;0.10;0.10;;;17.00;64.50;;;;;;5030467;28;20220;-50
2023/07/24 07:00:49;;;;;;;0.10;0.10;;;17.00;64.60;;;;;;5042258;28;20199;-47
2023/07/24 07:03:20;;;;;;;0.10;0.10;;;16.90;64.50;;;;;;5051021;28;20241;-48
2023/07/24 07:05:50;;;;;;;0.10;0.10;;;16.90;64.50;;;;;;5039909;28;20223;-52
2023/07/24 07:08:21;;;;;;;0.10;0.10;;;16.90;64.50;;;;;;5049789;28;20222;-48
2023/07/24 07:10:59;;;;;;;0.10;0.10;;;16.90;64.40;;;;;;5050579;28;20191;-49
2023/07/24 07:13:31;;;;;;;0.20;0.20;;;16.90;64.40;;;;;;5050977;28;20203;-48
2023/07/24 07:16:02;;;;;;;0.10;0.10;;;16.90;64.30;;;;;;5046133;28;20189;-47
2023/07/24 07:18:33;;;;;;;0.10;0.10;;;16.90;64.30;;;;;;5028935;28;20274;-48
2023/07/24 07:21:04;;;;;;;0.10;0.10;;;16.90;64.20;;;;;;5030650;28;20672;-48
2023/07/24 07:23:34;;;;;;;0.10;0.10;;;16.90;64.20;;;;;;5031471;28;20283;-47
2023/07/24 07:26:05;;;;;;;0.10;0.10;;;16.90;64.20;;;;;;5030714;28;20562;-50
2023/07/24 07:28:37;;;;;;;0.10;0.10;;;16.90;64.20;;;;;;5030340;28;20220;-47
2023/07/24 07:31:08;;;;;;;0.10;0.10;;;16.90;64.30;;;;;;5030619;28;20203;-46
2023/07/24 07:33:39;;;;;;;0.00;0.00;;;16.90;64.30;;;;;;5030702;28;20192;-48
2023/07/24 07:36:09;;;;;;;0.10;0.10;;;16.90;64.40;;;;;;5042280;28;20199;-47
2023/07/24 07:38:41;;;;;;;0.10;0.10;;;16.80;64.30;;;;;;5051837;28;20210;-49
2023/07/24 07:41:11;;;;;;;0.10;0.10;;;16.90;64.40;;;;;;5054222;28;20282;-50
2023/07/24 07:43:44;;;;;;;0.10;0.10;;;16.80;64.30;;;;;;5054020;28;20261;-48
2023/07/24 07:46:14;;;;;;;0.10;0.10;;;16.80;64.30;;;;;;5054198;28;20207;-48
2023/07/24 07:48:46;;;;;;;0.10;0.10;;;16.80;64.30;;;;;;5054933;28;20203;-47
2023/07/24 07:51:16;;;;;;;0.20;0.20;;;16.80;64.20;;;;;;5038452;28;20533;-47
2023/07/24 07:53:47;;;;;;;0.20;0.20;;;16.80;64.20;;;;;;5033775;28;20254;-48
2023/07/24 07:56:18;;;;;;;0.10;0.10;;;16.80;64.20;;;;;;5034282;28;20440;-48
2023/07/24 07:58:50;;;;;;;0.10;0.10;;;16.80;64.10;;;;;;5034287;28;20707;-48
2023/07/24 08:01:21;;;;;;;0.08;0.08;;;16.70;64.10;;;;;;5034696;28;20207;-49
2023/07/24 08:03:51;;;;;;;0.10;0.10;;;16.80;64.10;;;;;;5034452;28;20246;-47
2023/07/24 08:06:22;;;;;;;0.03;0.03;;;16.70;64.00;;;;;;5047750;28;20199;-49
2023/07/24 08:08:53;;;;;;;0.10;0.10;;;16.70;64.00;;;;;;5053689;28;20274;-47
2023/07/24 08:11:23;;;;;;;0.10;0.10;;;16.80;64.10;;;;;;5054222;28;20541;-47
2023/07/24 08:13:56;;;;;;;0.10;0.10;;;16.80;64.10;;;;;;5044882;28;20192;-47
2023/07/24 08:16:26;;;;;;;0.10;0.10;;;16.80;64.10;;;;;;5034300;28;20192;-47
2023/07/24 08:18:57;;;;;;;0.10;0.10;;;16.70;64.20;;;;;;5033926;28;20196;-49
2023/07/24 08:21:28;;;;;;;0.10;0.10;;;16.70;64.10;;;;;;5033608;28;20236;-48
2023/07/24 08:23:59;;;;;;;0.13;0.13;;;16.70;64.10;;;;;;5033573;28;20192;-49
2023/07/24 08:26:30;;;;;;;0.15;0.15;;;16.70;64.10;;;;;;5033976;28;20574;-47
2023/07/24 08:29:03;;;;;;;0.10;0.10;;;16.70;64.10;;;;;;5033764;28;20385;-50
2023/07/24 08:31:33;;;;;;;0.10;0.10;;;16.70;64.10;;;;;;5033942;28;20302;-48
2023/07/24 08:34:04;;;;;;;0.10;0.10;;;16.70;64.20;;;;;;5034151;28;20648;-48
2023/07/24 08:36:35;;;;;;;0.10;0.10;;;16.70;64.10;;;;;;5048119;28;20674;-45
2023/07/24 08:39:05;;;;;;;0.10;0.10;;;16.70;63.70;;;;;;5053449;28;20206;-48
2023/07/24 08:41:37;;;;;;;0.10;0.10;;;16.60;63.30;;;;;;5045115;28;20188;-50
2023/07/24 08:44:11;;;;;;;0.10;0.10;;;16.50;63.20;;;;;;5033214;28;20232;-51
2023/07/24 08:46:45;;;;;;;0.10;0.10;;;16.50;63.30;;;;;;5033662;28;20216;-49
2023/07/24 08:49:16;;;;;;;0.10;0.10;;;16.50;63.50;;;;;;5041335;28;20202;-49
2023/07/24 08:51:48;;;;;;;0.10;0.10;;;16.40;63.60;;;;;;5052967;28;20282;-50
2023/07/24 08:54:19;;;;;;;0.00;0.00;;;16.40;63.80;;;;;;5053475;28;20607;-48
2023/07/24 08:56:51;;;;;;;0.10;0.10;;;16.40;63.90;;;;;;5053047;28;20215;-48
2023/07/24 08:59:24;;;;;;;0.10;0.10;;;16.40;64.00;;;;;;5053261;28;20202;-48
2023/07/24 09:01:54;;;;;;;0.10;0.10;;;16.40;64.10;;;;;;5052869;28;20569;-48
2023/07/24 09:04:26;;;;;;;0.10;0.10;;;16.40;64.10;;;;;;5049210;28;20667;-49
2023/07/24 09:06:58;;;;;;;0.10;0.10;;;16.40;64.10;;;;;;5039484;28;20222;-49
2023/07/24 09:09:33;;;;;;;0.10;0.10;;;16.40;64.20;;;;;;5036335;28;20192;-51
2023/07/24 09:12:04;;;;;;;0.10;0.10;;;16.40;64.20;;;;;;5038545;28;20283;-52
2023/07/24 09:14:38;;;;;;;0.10;0.10;;;16.40;64.20;;;;;;5032122;28;20219;-49
2023/07/24 09:17:10;;;;;;;0.10;0.10;;;16.40;64.20;;;;;;5032538;28;20241;-53
2023/07/24 09:19:41;;;;;;;0.05;0.05;;;16.40;64.10;;;;;;5032828;28;20215;-48
2023/07/24 09:22:15;;;;;;;0.10;0.10;;;16.40;64.10;;;;;;5030937;28;20567;-48
2023/07/24 09:24:55;;;;;;;0.10;0.10;;;16.40;64.10;;;;;;5049887;28;20210;-49
2023/07/24 09:27:30;;;;;;;0.10;0.10;;;16.40;64.00;;;;;;5045746;28;20230;-51
2023/07/24 09:30:02;;;;;;;0.10;0.10;;;16.40;64.00;;;;;;5049195;28;20245;-52
2023/07/24 09:32:34;;;;;;;0.03;0.03;;;16.40;64.10;;;;;;5051750;28;20253;-50
2023/07/24 09:35:04;;;;;;;0.10;0.10;;;16.40;64.10;;;;;;5049156;28;20204;-49
2023/07/24 09:37:38;;;;;;;0.10;0.10;;;16.40;64.10;;;;;;5052275;28;20416;-49
2023/07/24 09:40:11;;;;;;;0.10;0.10;;;16.40;64.20;;;;;;5051505;28;20187;-48
2023/07/24 09:42:43;;;;;;;0.08;0.08;;;16.40;64.90;;;;;;5052395;28;20199;-51
2023/07/24 09:45:15;;;;;;;0.10;0.10;;;16.40;64.20;;;;;;5051679;28;20219;-51
2023/07/24 09:47:48;;;;;;;0.13;0.13;;;16.40;64.20;;;;;;5038694;28;20212;-52
2023/07/24 09:50:18;;;;;;;0.10;0.10;;;16.40;64.20;;;;;;5039144;28;20215;-49
2023/07/24 09:52:52;;;;;;;0.10;0.10;;;16.40;64.20;;;;;;5051833;28;20274;-49
2023/07/24 09:55:29;;;;;;;0.20;0.20;;;16.40;64.20;;;;;;5051512;28;20206;-49
2023/07/24 09:58:02;;;;;;;0.15;0.15;;;16.50;64.20;;;;;;5050822;28;20234;-48
2023/07/24 10:00:35;;;;;;;0.10;0.10;;;16.40;64.00;;;;;;5038747;28;20188;-48
2023/07/24 10:03:07;;;;;;;0.00;0.00;;;16.40;64.00;;;;;;5031486;28;20679;-50
2023/07/24 10:05:38;;;;;;;0.10;0.10;;;16.50;64.10;;;;;;5040548;28;20219;-52
2023/07/24 10:08:09;;;;;;;0.10;0.10;;;16.40;64.00;;;;;;5051360;28;20302;-49
2023/07/24 10:10:41;;;;;;;0.10;0.10;;;16.50;64.00;;;;;;5051080;28;20241;-48
2023/07/24 10:13:14;;;;;;;0.10;0.10;;;16.40;63.90;;;;;;5048349;28;20196;-49
2023/07/24 10:15:48;;;;;;;0.10;0.10;;;16.50;64.00;;;;;;5041522;28;20279;-49
2023/07/24 10:18:27;;;;;;;0.10;0.10;;;16.50;64.10;;;;;;5030823;28;20227;-50
2023/07/24 10:21:04;;;;;;;0.15;0.15;;;16.50;64.10;;;;;;5031709;28;20192;-47
2023/07/24 10:23:38;;;;;;;0.10;0.10;;;16.50;64.00;;;;;;5031603;28;20196;-48
2023/07/24 10:26:09;;;;;;;0.10;0.10;;;16.40;63.90;;;;;;5044039;28;20215;-48
2023/07/24 10:28:42;;;;;;;0.00;0.00;;;16.40;63.90;;;;;;5050750;28;20223;-50
2023/07/24 10:31:28;;;;;;;0.10;0.10;;;16.40;63.90;;;;;;5050365;28;20207;-51
2023/07/24 10:34:05;;;;;;;0.10;0.10;;;16.40;63.90;;;;;;5051212;28;20249;-50
2023/07/24 10:36:39;;;;;;;0.10;0.10;;;16.40;63.90;;;;;;5050421;28;20198;-50
2023/07/24 10:39:18;;;;;;;0.10;0.10;;;16.40;63.90;;;;;;5051062;28;20225;-48
2023/07/24 10:41:49;;;;;;;0.10;0.10;;;16.40;63.90;;;;;;5050524;28;20194;-48
2023/07/24 10:44:19;;;;;;;0.10;0.10;;;16.40;63.90;;;;;;5048456;28;20203;-50
2023/07/24 10:46:53;;;;;;;0.20;0.20;;;16.40;63.90;;;;;;5044839;28;20236;-50
2023/07/24 10:49:26;;;;;;;0.10;0.10;;;16.30;63.80;;;;;;5050210;28;20199;-51
2023/07/24 10:51:59;;;;;;;0.10;0.10;;;16.40;63.90;;;;;;5032512;28;20192;-48
2023/07/24 10:54:30;;;;;;;0.10;0.10;;;16.40;63.80;;;;;;5041977;28;20199;-49
2023/07/24 10:57:03;;;;;;;0.10;0.10;;;16.40;63.80;;;;;;5051644;28;20215;-50
2023/07/24 10:59:41;;;;;;;0.10;0.10;;;16.40;63.80;;;;;;5051463;28;20265;-48
2023/07/24 11:02:13;;;;;;;0.10;0.10;;;16.30;63.80;;;;;;5051078;28;20195;-50
2023/07/24 11:04:44;;;;;;;0.10;0.10;;;16.30;63.80;;;;;;5050856;28;20200;-51
2023/07/24 11:07:15;;;;;;;0.10;0.10;;;16.30;63.80;;;;;;5041430;28;20215;-48
2023/07/24 11:09:45;;;;;;;0.10;0.10;;;16.30;63.80;;;;;;5041032;28;20189;-51
2023/07/24 11:12:17;;;;;;;0.10;0.10;;;16.30;63.80;;;;;;5039603;28;20447;-52
2023/07/24 11:14:56;;;;;;;0.00;0.00;;;16.30;63.80;;;;;;5039429;28;20599;-49
2023/07/24 11:17:40;;;;;;;0.10;0.10;;;16.30;63.80;;;;;;5041413;28;20302;-53
2023/07/24 11:20:16;;;;;;;0.10;0.10;;;16.30;63.80;;;;;;5041668;28;20203;-53
2023/07/24 11:22:47;;;;;;;0.10;0.10;;;16.30;63.80;;;;;;5041236;28;20204;-49
2023/07/24 11:25:19;;;;;;;0.10;0.10;;;16.30;63.80;;;;;;5040082;28;20216;-49
2023/07/24 11:27:49;;;;;;;0.10;0.10;;;16.20;63.80;;;;;;5039965;28;20215;-50
2023/07/24 11:30:24;;;;;;;0.15;0.15;;;16.20;63.80;;;;;;5041008;28;20196;-47
2023/07/24 11:32:57;;;;;;;0.10;0.10;;;16.20;63.80;;;;;;5039668;28;20199;-53
2023/07/24 11:35:28;;;;;;;0.10;0.10;;;16.20;63.80;;;;;;5040256;28;20210;-48
2023/07/24 11:37:59;;;;;;;0.10;0.10;;;16.20;63.70;;;;;;5043188;28;20215;-47
2023/07/24 11:40:36;;;;;;;0.10;0.10;;;16.20;63.70;;;;;;5051040;28;20203;-48
2023/07/24 11:43:07;;;;;;;0.20;0.20;;;16.20;63.70;;;;;;5050644;28;20199;-47
2023/07/24 11:45:45;;;;;;;0.10;0.10;;;16.20;63.70;;;;;;5035936;28;20238;-47
2023/07/24 11:48:18;;;;;;;0.13;0.13;;;16.20;63.70;;;;;;5030895;28;20224;-47
2023/07/24 11:50:49;;;;;;;0.10;0.10;;;16.20;63.70;;;;;;5030904;28;20196;-47
2023/07/24 11:53:25;;;;;;;0.10;0.10;;;16.10;63.60;;;;;;5030712;28;20200;-47
2023/07/24 11:55:56;;;;;;;0.10;0.10;;;16.10;63.60;;;;;;5047559;28;20199;-49
2023/07/24 11:58:29;;;;;;;0.10;0.10;;;16.10;63.60;;;;;;5049797;28;20219;-47
2023/07/24 12:01:00;;;;;;;0.10;0.10;;;16.10;63.60;;;;;;5050609;28;20195;-49
2023/07/24 12:03:32;;;;;;;0.10;0.10;;;16.10;63.60;;;;;;5051021;28;20199;-48
2023/07/24 12:06:04;;;;;;;0.10;0.10;;;16.00;63.60;;;;;;5043487;28;20228;-49
2023/07/24 12:08:36;;;;;;;0.10;0.10;;;16.00;63.60;;;;;;5030137;28;20294;-50
2023/07/24 12:11:06;;;;;;;0.20;0.20;;;16.00;63.60;;;;;;5030379;28;20624;-48
2023/07/24 12:13:38;;;;;;;0.20;0.20;;;16.00;63.60;;;;;;5030965;28;20684;-48
2023/07/24 12:16:09;;;;;;;0.10;0.10;;;16.00;63.60;;;;;;5030580;28;20243;-49
2023/07/24 12:18:42;;;;;;;0.10;0.10;;;16.00;63.60;;;;;;5030843;28;20220;-48
2023/07/24 12:21:12;;;;;;;0.10;0.10;;;16.00;63.60;;;;;;5030858;28;20215;-48
2023/07/24 12:23:43;;;;;;;0.20;0.20;;;16.00;63.60;;;;;;5034095;28;20200;-48
2023/07/24 12:26:14;;;;;;;0.10;0.10;;;16.00;63.50;;;;;;5033996;28;20224;-47
2023/07/24 12:28:44;;;;;;;0.10;0.10;;;16.00;63.60;;;;;;5033684;28;20589;-48
2023/07/24 12:31:15;;;;;;;0.10;0.10;;;15.90;63.50;;;;;;5034057;28;20269;-46
2023/07/24 12:33:47;;;;;;;0.20;0.20;;;15.90;63.50;;;;;;5033904;28;20208;-47
2023/07/24 12:36:21;;;;;;;0.10;0.10;;;15.90;63.50;;;;;;5046754;28;20196;-48
2023/07/24 12:38:51;;;;;;;0.10;0.10;;;15.90;63.50;;;;;;5053631;28;20249;-50
2023/07/24 12:41:22;;;;;;;0.10;0.10;;;15.90;63.50;;;;;;5050337;28;20210;-47
2023/07/24 12:43:53;;;;;;;0.10;0.10;;;15.90;63.50;;;;;;5053411;28;20204;-48
2023/07/24 12:46:23;;;;;;;0.10;0.10;;;15.80;63.50;;;;;;5053487;28;20230;-47
2023/07/24 12:48:56;;;;;;;0.10;0.10;;;15.80;63.40;;;;;;5053753;28;20203;-48
2023/07/24 12:51:26;;;;;;;0.10;0.10;;;15.80;63.50;;;;;;5053592;28;20214;-50
2023/07/24 12:53:57;;;;;;;0.10;0.10;;;15.80;63.50;;;;;;5050202;28;20196;-51
2023/07/24 12:56:27;;;;;;;0.10;0.10;;;15.80;63.50;;;;;;5053765;28;20203;-47
2023/07/24 12:58:58;;;;;;;0.10;0.10;;;15.80;63.50;;;;;;5053623;28;20206;-47
2023/07/24 13:01:29;;;;;;;0.10;0.10;;;15.80;63.50;;;;;;5053704;28;20207;-47
2023/07/24 13:04:01;;;;;;;0.10;0.10;;;15.80;63.50;;;;;;5053867;28;20195;-48
2023/07/24 13:06:32;;;;;;;0.10;0.10;;;15.80;63.40;;;;;;5053065;28;20300;-50
2023/07/24 13:09:03;;;;;;;0.10;0.10;;;15.70;63.30;;;;;;5053464;28;20587;-51
2023/07/24 13:11:33;;;;;;;0.13;0.13;;;15.80;63.40;;;;;;5053391;28;20192;-51